sensor_id;sensor_type;location;lat;lon;timestamp;temperature;humidity
17774;DHT22;9011;33.236;-97.118;2023-04-24T00:00:56;15.60;99.90
17774;DHT22;9011;33.236;-97.118;2023-04-24T00:03:31;15.60;99.90
17774;DHT22;9011;33.236;-97.118;2023-04-24T00:06:02;15.50;99.90
17774;DHT22;9011;33.236;-97.118;2023-04-24T00:08:31;15.50;99.90
17774;DHT22;9011;33.236;-97.118;2023-04-24T00:11:00;15.00;99.90
17774;DHT22;9011;33.236;-97.118;2023-04-24T00:13:31;15.00;99.90
17774;DHT22;9011;33.236;-97.118;2023-04-24T00:16:00;14.80;99.90
17774;DHT22;9011;33.236;-97.118;2023-04-24T00:18:28;14.70;99.90
17774;DHT22;9011;33.236;-97.118;2023-04-24T00:20:57;14.60;99.90
17774;DHT22;9011;33.236;-97.118;2023-04-24T00:23:26;14.30;99.90
17774;DHT22;9011;33.236;-97.118;2023-04-24T00:25:57;14.60;99.90
17774;DHT22;9011;33.236;-97.118;2023-04-24T00:28:30;14.40;99.90
17774;DHT22;9011;33.236;-97.118;2023-04-24T00:30:59;14.20;99.90
17774;DHT22;9011;33.236;-97.118;2023-04-24T00:33:30;14.30;99.90
17774;DHT22;9011;33.236;-97.118;2023-04-24T00:35:59;14.30;99.90
17774;DHT22;9011;33.236;-97.118;2023-04-24T00:38:30;14.20;99.90
17774;DHT22;9011;33.236;-97.118;2023-04-24T00:40:58;14.20;99.90
17774;DHT22;9011;33.236;-97.118;2023-04-24T00:43:27;14.20;99.90
17774;DHT22;9011;33.236;-97.118;2023-04-24T00:46:10;14.20;99.90
17774;DHT22;9011;33.236;-97.118;2023-04-24T00:48:41;14.20;99.90
17774;DHT22;9011;33.236;-97.118;2023-04-24T00:51:10;14.20;99.90
17774;DHT22;9011;33.236;-97.118;2023-04-24T00:53:44;14.10;99.90
17774;DHT22;9011;33.236;-97.118;2023-04-24T00:56:15;14.10;99.90
17774;DHT22;9011;33.236;-97.118;2023-04-24T00:58:49;14.10;99.90
17774;DHT22;9011;33.236;-97.118;2023-04-24T01:01:27;14.00;99.90
17774;DHT22;9011;33.236;-97.118;2023-04-24T01:03:57;13.90;99.90
17774;DHT22;9011;33.236;-97.118;2023-04-24T01:06:41;13.90;99.90
17774;DHT22;9011;33.236;-97.118;2023-04-24T01:09:17;14.00;99.90
17774;DHT22;9011;33.236;-97.118;2023-04-24T01:11:46;13.90;99.90
17774;DHT22;9011;33.236;-97.118;2023-04-24T01:14:21;13.80;99.90
17774;DHT22;9011;33.236;-97.118;2023-04-24T01:16:57;13.80;99.90
17774;DHT22;9011;33.236;-97.118;2023-04-24T01:19:27;13.80;99.90
17774;DHT22;9011;33.236;-97.118;2023-04-24T01:21:58;13.80;99.90
17774;DHT22;9011;33.236;-97.118;2023-04-24T01:24:31;13.80;99.90
17774;DHT22;9011;33.236;-97.118;2023-04-24T01:27:03;13.70;99.90
17774;DHT22;9011;33.236;-97.118;2023-04-24T01:29:32;13.30;99.90
17774;DHT22;9011;33.236;-97.118;2023-04-24T01:32:04;13.40;99.90
17774;DHT22;9011;33.236;-97.118;2023-04-24T01:34:33;13.40;99.90
17774;DHT22;9011;33.236;-97.118;2023-04-24T01:37:02;13.30;99.90
17774;DHT22;9011;33.236;-97.118;2023-04-24T01:39:39;13.20;99.90
17774;DHT22;9011;33.236;-97.118;2023-04-24T01:42:07;13.10;99.90
17774;DHT22;9011;33.236;-97.118;2023-04-24T01:44:36;12.90;99.90
17774;DHT22;9011;33.236;-97.118;2023-04-24T01:47:12;12.90;99.90
17774;DHT22;9011;33.236;-97.118;2023-04-24T01:49:44;12.90;99.90
17774;DHT22;9011;33.236;-97.118;2023-04-24T01:52:13;12.90;99.90
17774;DHT22;9011;33.236;-97.118;2023-04-24T01:54:47;12.80;99.90
17774;DHT22;9011;33.236;-97.118;2023-04-24T01:57:16;12.80;99.90
17774;DHT22;9011;33.236;-97.118;2023-04-24T01:59:50;12.70;99.90
17774;DHT22;9011;33.236;-97.118;2023-04-24T02:02:24;12.60;99.90
17774;DHT22;9011;33.236;-97.118;2023-04-24T02:04:54;12.60;99.90
17774;DHT22;9011;33.236;-97.118;2023-04-24T02:07:28;12.60;99.90
17774;DHT22;9011;33.236;-97.118;2023-04-24T02:10:03;12.40;99.90
17774;DHT22;9011;33.236;-97.118;2023-04-24T02:12:32;12.30;99.90
17774;DHT22;9011;33.236;-97.118;2023-04-24T02:15:01;12.30;99.90
17774;DHT22;9011;33.236;-97.118;2023-04-24T02:17:32;12.30;99.90
17774;DHT22;9011;33.236;-97.118;2023-04-24T02:20:00;12.20;99.90
17774;DHT22;9011;33.236;-97.118;2023-04-24T02:22:29;12.20;99.90
17774;DHT22;9011;33.236;-97.118;2023-04-24T02:25:01;12.00;99.90
17774;DHT22;9011;33.236;-97.118;2023-04-24T02:27:33;12.00;99.90
17774;DHT22;9011;33.236;-97.118;2023-04-24T02:30:11;12.00;99.90
17774;DHT22;9011;33.236;-97.118;2023-04-24T02:32:40;11.90;99.90
17774;DHT22;9011;33.236;-97.118;2023-04-24T02:35:10;11.80;99.90
17774;DHT22;9011;33.236;-97.118;2023-04-24T02:37:39;11.80;99.90
17774;DHT22;9011;33.236;-97.118;2023-04-24T02:40:12;11.60;99.90
17774;DHT22;9011;33.236;-97.118;2023-04-24T02:42:41;11.50;99.90
17774;DHT22;9011;33.236;-97.118;2023-04-24T02:45:13;11.10;99.90
17774;DHT22;9011;33.236;-97.118;2023-04-24T02:47:42;11.10;99.90
17774;DHT22;9011;33.236;-97.118;2023-04-24T02:50:14;11.10;99.90
17774;DHT22;9011;33.236;-97.118;2023-04-24T02:52:42;10.90;99.90
17774;DHT22;9011;33.236;-97.118;2023-04-24T02:55:31;11.00;99.90
17774;DHT22;9011;33.236;-97.118;2023-04-24T02:58:02;11.00;99.90
17774;DHT22;9011;33.236;-97.118;2023-04-24T03:00:30;10.80;99.90
17774;DHT22;9011;33.236;-97.118;2023-04-24T03:02:59;10.50;99.90
17774;DHT22;9011;33.236;-97.118;2023-04-24T03:05:28;10.50;99.90
17774;DHT22;9011;33.236;-97.118;2023-04-24T03:07:57;10.50;99.90
17774;DHT22;9011;33.236;-97.118;2023-04-24T03:10:27;10.50;99.90
17774;DHT22;9011;33.236;-97.118;2023-04-24T03:12:55;10.50;99.90
17774;DHT22;9011;33.236;-97.118;2023-04-24T03:15:24;10.50;99.90
17774;DHT22;9011;33.236;-97.118;2023-04-24T03:17:53;10.50;99.90
17774;DHT22;9011;33.236;-97.118;2023-04-24T03:20:21;10.50;99.90
17774;DHT22;9011;33.236;-97.118;2023-04-24T03:22:50;10.40;99.90
17774;DHT22;9011;33.236;-97.118;2023-04-24T03:25:18;10.40;99.90
17774;DHT22;9011;33.236;-97.118;2023-04-24T03:27:48;10.40;99.90
17774;DHT22;9011;33.236;-97.118;2023-04-24T03:30:17;10.20;99.90
17774;DHT22;9011;33.236;-97.118;2023-04-24T03:32:46;10.10;99.90
17774;DHT22;9011;33.236;-97.118;2023-04-24T03:35:14;10.20;99.90
17774;DHT22;9011;33.236;-97.118;2023-04-24T03:37:43;10.20;99.90
17774;DHT22;9011;33.236;-97.118;2023-04-24T03:40:11;10.20;99.90
17774;DHT22;9011;33.236;-97.118;2023-04-24T03:42:40;10.20;99.90
17774;DHT22;9011;33.236;-97.118;2023-04-24T03:45:11;10.20;99.90
17774;DHT22;9011;33.236;-97.118;2023-04-24T03:47:39;10.20;99.90
17774;DHT22;9011;33.236;-97.118;2023-04-24T03:50:08;10.20;99.90
17774;DHT22;9011;33.236;-97.118;2023-04-24T03:52:37;10.20;99.90
17774;DHT22;9011;33.236;-97.118;2023-04-24T03:55:06;10.20;99.90
17774;DHT22;9011;33.236;-97.118;2023-04-24T03:57:35;10.10;99.90
17774;DHT22;9011;33.236;-97.118;2023-04-24T04:00:04;10.00;99.90
17774;DHT22;9011;33.236;-97.118;2023-04-24T04:02:36;9.90;99.90
17774;DHT22;9011;33.236;-97.118;2023-04-24T04:05:05;9.90;99.90
17774;DHT22;9011;33.236;-97.118;2023-04-24T04:07:34;9.90;99.90
17774;DHT22;9011;33.236;-97.118;2023-04-24T04:10:03;10.00;99.90
17774;DHT22;9011;33.236;-97.118;2023-04-24T04:12:33;9.90;99.90
17774;DHT22;9011;33.236;-97.118;2023-04-24T04:15:02;9.70;99.90
17774;DHT22;9011;33.236;-97.118;2023-04-24T04:17:31;9.80;99.90
17774;DHT22;9011;33.236;-97.118;2023-04-24T04:20:01;9.80;99.90
17774;DHT22;9011;33.236;-97.118;2023-04-24T04:22:33;9.60;99.90
17774;DHT22;9011;33.236;-97.118;2023-04-24T04:25:02;9.50;99.90
17774;DHT22;9011;33.236;-97.118;2023-04-24T04:27:31;9.50;99.90
17774;DHT22;9011;33.236;-97.118;2023-04-24T04:30:00;9.50;99.90
17774;DHT22;9011;33.236;-97.118;2023-04-24T04:32:31;9.50;99.90
17774;DHT22;9011;33.236;-97.118;2023-04-24T04:35:01;9.40;99.90
17774;DHT22;9011;33.236;-97.118;2023-04-24T04:37:30;9.40;99.90
17774;DHT22;9011;33.236;-97.118;2023-04-24T04:39:59;9.40;99.90
17774;DHT22;9011;33.236;-97.118;2023-04-24T04:42:33;9.40;99.90
17774;DHT22;9011;33.236;-97.118;2023-04-24T04:45:01;9.40;99.90
17774;DHT22;9011;33.236;-97.118;2023-04-24T04:47:30;9.30;99.90
17774;DHT22;9011;33.236;-97.118;2023-04-24T04:50:01;9.30;99.90
17774;DHT22;9011;33.236;-97.118;2023-04-24T04:52:30;9.30;99.90
17774;DHT22;9011;33.236;-97.118;2023-04-24T04:54:58;9.20;99.90
17774;DHT22;9011;33.236;-97.118;2023-04-24T04:57:26;9.20;99.90
17774;DHT22;9011;33.236;-97.118;2023-04-24T04:59:55;9.20;99.90
17774;DHT22;9011;33.236;-97.118;2023-04-24T05:02:23;9.20;99.90
17774;DHT22;9011;33.236;-97.118;2023-04-24T05:04:52;9.20;99.90
17774;DHT22;9011;33.236;-97.118;2023-04-24T05:07:22;9.20;99.90
17774;DHT22;9011;33.236;-97.118;2023-04-24T05:09:50;9.20;99.90
17774;DHT22;9011;33.236;-97.118;2023-04-24T05:12:18;9.20;99.90
17774;DHT22;9011;33.236;-97.118;2023-04-24T05:14:47;9.10;99.90
17774;DHT22;9011;33.236;-97.118;2023-04-24T05:17:15;9.20;99.90
17774;DHT22;9011;33.236;-97.118;2023-04-24T05:19:43;9.10;99.90
17774;DHT22;9011;33.236;-97.118;2023-04-24T05:22:12;9.20;99.90
17774;DHT22;9011;33.236;-97.118;2023-04-24T05:24:42;9.20;99.90
17774;DHT22;9011;33.236;-97.118;2023-04-24T05:27:11;9.10;99.90
17774;DHT22;9011;33.236;-97.118;2023-04-24T05:29:39;9.00;99.90
17774;DHT22;9011;33.236;-97.118;2023-04-24T05:32:08;9.00;99.90
17774;DHT22;9011;33.236;-97.118;2023-04-24T05:34:36;9.00;99.90
17774;DHT22;9011;33.236;-97.118;2023-04-24T05:37:04;9.10;99.90
17774;DHT22;9011;33.236;-97.118;2023-04-24T05:39:36;9.10;99.90
17774;DHT22;9011;33.236;-97.118;2023-04-24T05:42:06;9.00;99.90
17774;DHT22;9011;33.236;-97.118;2023-04-24T05:44:34;9.10;99.90
17774;DHT22;9011;33.236;-97.118;2023-04-24T05:47:02;9.10;99.90
17774;DHT22;9011;33.236;-97.118;2023-04-24T05:49:31;9.10;99.90
17774;DHT22;9011;33.236;-97.118;2023-04-24T05:51:59;9.10;99.90
17774;DHT22;9011;33.236;-97.118;2023-04-24T05:54:27;9.10;99.90
17774;DHT22;9011;33.236;-97.118;2023-04-24T05:56:56;9.00;99.90
17774;DHT22;9011;33.236;-97.118;2023-04-24T05:59:26;9.10;99.90
17774;DHT22;9011;33.236;-97.118;2023-04-24T06:01:54;9.20;99.90
17774;DHT22;9011;33.236;-97.118;2023-04-24T06:04:23;9.20;99.90
17774;DHT22;9011;33.236;-97.118;2023-04-24T06:06:51;9.20;99.90
17774;DHT22;9011;33.236;-97.118;2023-04-24T06:09:22;9.10;99.90
17774;DHT22;9011;33.236;-97.118;2023-04-24T06:11:51;9.10;99.90
17774;DHT22;9011;33.236;-97.118;2023-04-24T06:14:20;9.20;99.90
17774;DHT22;9011;33.236;-97.118;2023-04-24T06:16:50;9.20;99.90
17774;DHT22;9011;33.236;-97.118;2023-04-24T06:19:18;9.20;99.90
17774;DHT22;9011;33.236;-97.118;2023-04-24T06:21:47;9.10;99.90
17774;DHT22;9011;33.236;-97.118;2023-04-24T06:24:15;9.00;99.90
17774;DHT22;9011;33.236;-97.118;2023-04-24T06:26:44;9.00;99.90
17774;DHT22;9011;33.236;-97.118;2023-04-24T06:29:12;8.90;99.90
17774;DHT22;9011;33.236;-97.118;2023-04-24T06:31:40;8.90;99.90
17774;DHT22;9011;33.236;-97.118;2023-04-24T06:34:10;8.80;99.90
17774;DHT22;9011;33.236;-97.118;2023-04-24T06:36:39;8.90;99.90
17774;DHT22;9011;33.236;-97.118;2023-04-24T06:39:07;8.90;99.90
17774;DHT22;9011;33.236;-97.118;2023-04-24T06:41:35;8.80;99.90
17774;DHT22;9011;33.236;-97.118;2023-04-24T06:44:04;8.90;99.90
17774;DHT22;9011;33.236;-97.118;2023-04-24T06:46:32;8.80;99.90
17774;DHT22;9011;33.236;-97.118;2023-04-24T06:49:01;8.80;99.90
17774;DHT22;9011;33.236;-97.118;2023-04-24T06:51:30;8.80;99.90
17774;DHT22;9011;33.236;-97.118;2023-04-24T06:53:59;8.80;99.90
17774;DHT22;9011;33.236;-97.118;2023-04-24T06:56:28;8.80;99.90
17774;DHT22;9011;33.236;-97.118;2023-04-24T06:58:56;8.60;99.90
17774;DHT22;9011;33.236;-97.118;2023-04-24T07:01:25;8.50;99.90
17774;DHT22;9011;33.236;-97.118;2023-04-24T07:03:53;8.50;99.90
17774;DHT22;9011;33.236;-97.118;2023-04-24T07:06:21;8.50;99.90
17774;DHT22;9011;33.236;-97.118;2023-04-24T07:08:52;8.50;99.90
17774;DHT22;9011;33.236;-97.118;2023-04-24T07:11:20;8.50;99.90
17774;DHT22;9011;33.236;-97.118;2023-04-24T07:13:48;8.60;99.90
17774;DHT22;9011;33.236;-97.118;2023-04-24T07:16:17;8.60;99.90
17774;DHT22;9011;33.236;-97.118;2023-04-24T07:18:45;8.50;99.90
17774;DHT22;9011;33.236;-97.118;2023-04-24T07:21:13;8.50;99.90
17774;DHT22;9011;33.236;-97.118;2023-04-24T07:23:42;8.60;99.90
17774;DHT22;9011;33.236;-97.118;2023-04-24T07:26:12;8.50;99.90
17774;DHT22;9011;33.236;-97.118;2023-04-24T07:28:41;8.60;99.90
17774;DHT22;9011;33.236;-97.118;2023-04-24T07:31:10;8.50;99.90
17774;DHT22;9011;33.236;-97.118;2023-04-24T07:33:39;8.60;99.90
17774;DHT22;9011;33.236;-97.118;2023-04-24T07:36:07;8.50;99.90
17774;DHT22;9011;33.236;-97.118;2023-04-24T07:38:41;8.40;99.90
17774;DHT22;9011;33.236;-97.118;2023-04-24T07:41:11;8.30;99.90
17774;DHT22;9011;33.236;-97.118;2023-04-24T07:43:40;8.40;99.90
17774;DHT22;9011;33.236;-97.118;2023-04-24T07:46:08;8.30;99.90
17774;DHT22;9011;33.236;-97.118;2023-04-24T07:48:37;8.40;99.90
17774;DHT22;9011;33.236;-97.118;2023-04-24T07:51:05;8.40;99.90
17774;DHT22;9011;33.236;-97.118;2023-04-24T07:53:36;8.30;99.90
17774;DHT22;9011;33.236;-97.118;2023-04-24T07:56:05;8.30;99.90
17774;DHT22;9011;33.236;-97.118;2023-04-24T07:58:35;8.30;99.90
17774;DHT22;9011;33.236;-97.118;2023-04-24T08:01:03;8.30;99.90
17774;DHT22;9011;33.236;-97.118;2023-04-24T08:03:32;8.30;99.90
17774;DHT22;9011;33.236;-97.118;2023-04-24T08:06:00;8.10;99.90
17774;DHT22;9011;33.236;-97.118;2023-04-24T08:08:28;8.20;99.90
17774;DHT22;9011;33.236;-97.118;2023-04-24T08:10:57;8.10;99.90
17774;DHT22;9011;33.236;-97.118;2023-04-24T08:13:25;8.10;99.90
17774;DHT22;9011;33.236;-97.118;2023-04-24T08:15:56;8.20;99.90
17774;DHT22;9011;33.236;-97.118;2023-04-24T08:18:24;8.20;99.90
17774;DHT22;9011;33.236;-97.118;2023-04-24T08:20:52;8.20;99.90
17774;DHT22;9011;33.236;-97.118;2023-04-24T08:23:21;8.10;99.90
17774;DHT22;9011;33.236;-97.118;2023-04-24T08:25:49;8.10;99.90
17774;DHT22;9011;33.236;-97.118;2023-04-24T08:28:18;8.10;99.90
17774;DHT22;9011;33.236;-97.118;2023-04-24T08:30:46;8.10;99.90
17774;DHT22;9011;33.236;-97.118;2023-04-24T08:33:20;8.20;99.90
17774;DHT22;9011;33.236;-97.118;2023-04-24T08:35:49;8.10;99.90
17774;DHT22;9011;33.236;-97.118;2023-04-24T08:38:17;8.00;99.90
17774;DHT22;9011;33.236;-97.118;2023-04-24T08:40:45;7.90;99.90
17774;DHT22;9011;33.236;-97.118;2023-04-24T08:43:16;7.80;99.90
17774;DHT22;9011;33.236;-97.118;2023-04-24T08:45:45;7.90;99.90
17774;DHT22;9011;33.236;-97.118;2023-04-24T08:48:14;7.90;99.90
17774;DHT22;9011;33.236;-97.118;2023-04-24T08:50:44;7.90;99.90
17774;DHT22;9011;33.236;-97.118;2023-04-24T08:53:13;7.90;99.90
17774;DHT22;9011;33.236;-97.118;2023-04-24T08:55:44;7.80;99.90
17774;DHT22;9011;33.236;-97.118;2023-04-24T08:58:16;7.60;99.90
17774;DHT22;9011;33.236;-97.118;2023-04-24T09:00:45;7.60;99.90
17774;DHT22;9011;33.236;-97.118;2023-04-24T09:03:15;7.60;99.90
17774;DHT22;9011;33.236;-97.118;2023-04-24T09:05:47;7.50;99.90
17774;DHT22;9011;33.236;-97.118;2023-04-24T09:08:17;7.60;99.90
17774;DHT22;9011;33.236;-97.118;2023-04-24T09:10:47;7.60;99.90
17774;DHT22;9011;33.236;-97.118;2023-04-24T09:13:15;7.60;99.90
17774;DHT22;9011;33.236;-97.118;2023-04-24T09:15:43;7.60;99.90
17774;DHT22;9011;33.236;-97.118;2023-04-24T09:18:12;7.50;99.90
17774;DHT22;9011;33.236;-97.118;2023-04-24T09:20:59;7.50;99.90
17774;DHT22;9011;33.236;-97.118;2023-04-24T09:23:29;7.50;99.90
17774;DHT22;9011;33.236;-97.118;2023-04-24T09:25:59;7.60;99.90
17774;DHT22;9011;33.236;-97.118;2023-04-24T09:28:30;7.50;99.90
17774;DHT22;9011;33.236;-97.118;2023-04-24T09:31:06;7.40;99.90
17774;DHT22;9011;33.236;-97.118;2023-04-24T09:33:34;7.40;99.90
17774;DHT22;9011;33.236;-97.118;2023-04-24T09:36:05;7.50;99.90
17774;DHT22;9011;33.236;-97.118;2023-04-24T09:38:35;7.40;99.90
17774;DHT22;9011;33.236;-97.118;2023-04-24T09:41:06;7.40;99.90
17774;DHT22;9011;33.236;-97.118;2023-04-24T09:43:35;7.30;99.90
17774;DHT22;9011;33.236;-97.118;2023-04-24T09:46:06;7.20;99.90
17774;DHT22;9011;33.236;-97.118;2023-04-24T09:48:36;7.20;99.90
17774;DHT22;9011;33.236;-97.118;2023-04-24T09:51:07;7.30;99.90
17774;DHT22;9011;33.236;-97.118;2023-04-24T09:53:37;7.10;99.90
17774;DHT22;9011;33.236;-97.118;2023-04-24T09:56:08;7.10;99.90
17774;DHT22;9011;33.236;-97.118;2023-04-24T09:58:36;7.20;99.90
17774;DHT22;9011;33.236;-97.118;2023-04-24T10:01:05;7.20;99.90
17774;DHT22;9011;33.236;-97.118;2023-04-24T10:03:33;7.30;99.90
17774;DHT22;9011;33.236;-97.118;2023-04-24T10:06:02;7.30;99.90
17774;DHT22;9011;33.236;-97.118;2023-04-24T10:08:36;7.30;99.90
17774;DHT22;9011;33.236;-97.118;2023-04-24T10:11:05;7.20;99.90
17774;DHT22;9011;33.236;-97.118;2023-04-24T10:13:35;7.10;99.90
17774;DHT22;9011;33.236;-97.118;2023-04-24T10:16:04;6.90;99.90
17774;DHT22;9011;33.236;-97.118;2023-04-24T10:18:34;7.00;99.90
17774;DHT22;9011;33.236;-97.118;2023-04-24T10:21:02;7.10;99.90
17774;DHT22;9011;33.236;-97.118;2023-04-24T10:23:31;7.20;99.90
17774;DHT22;9011;33.236;-97.118;2023-04-24T10:26:01;7.20;99.90
17774;DHT22;9011;33.236;-97.118;2023-04-24T10:28:31;7.20;99.90
17774;DHT22;9011;33.236;-97.118;2023-04-24T10:31:00;7.10;99.90
17774;DHT22;9011;33.236;-97.118;2023-04-24T10:33:30;7.00;99.90
17774;DHT22;9011;33.236;-97.118;2023-04-24T10:35:58;7.00;99.90
17774;DHT22;9011;33.236;-97.118;2023-04-24T10:38:28;7.00;99.90
17774;DHT22;9011;33.236;-97.118;2023-04-24T10:41:09;7.10;99.90
17774;DHT22;9011;33.236;-97.118;2023-04-24T10:43:44;7.10;99.90
17774;DHT22;9011;33.236;-97.118;2023-04-24T10:46:19;7.20;99.90
17774;DHT22;9011;33.236;-97.118;2023-04-24T10:48:53;7.30;99.90
17774;DHT22;9011;33.236;-97.118;2023-04-24T10:51:22;7.30;99.90
17774;DHT22;9011;33.236;-97.118;2023-04-24T10:53:52;7.30;99.90
17774;DHT22;9011;33.236;-97.118;2023-04-24T10:56:22;7.30;99.90
17774;DHT22;9011;33.236;-97.118;2023-04-24T10:58:51;7.40;99.90
17774;DHT22;9011;33.236;-97.118;2023-04-24T11:01:25;7.50;99.90
17774;DHT22;9011;33.236;-97.118;2023-04-24T11:03:55;7.50;99.90
17774;DHT22;9011;33.236;-97.118;2023-04-24T11:06:29;7.40;99.90
17774;DHT22;9011;33.236;-97.118;2023-04-24T11:09:03;7.30;99.90
17774;DHT22;9011;33.236;-97.118;2023-04-24T11:11:36;7.30;99.90
17774;DHT22;9011;33.236;-97.118;2023-04-24T11:14:09;7.30;99.90
17774;DHT22;9011;33.236;-97.118;2023-04-24T11:16:43;7.40;99.90
17774;DHT22;9011;33.236;-97.118;2023-04-24T11:19:20;7.40;99.90
17774;DHT22;9011;33.236;-97.118;2023-04-24T11:21:55;7.40;99.90
17774;DHT22;9011;33.236;-97.118;2023-04-24T11:24:28;7.50;99.90
17774;DHT22;9011;33.236;-97.118;2023-04-24T11:27:00;7.60;99.90
17774;DHT22;9011;33.236;-97.118;2023-04-24T11:29:40;7.70;99.90
17774;DHT22;9011;33.236;-97.118;2023-04-24T11:32:16;7.70;99.90
17774;DHT22;9011;33.236;-97.118;2023-04-24T11:34:47;7.80;99.90
17774;DHT22;9011;33.236;-97.118;2023-04-24T11:37:16;7.90;99.90
17774;DHT22;9011;33.236;-97.118;2023-04-24T11:39:44;7.90;99.90
17774;DHT22;9011;33.236;-97.118;2023-04-24T11:42:16;7.90;99.90
17774;DHT22;9011;33.236;-97.118;2023-04-24T11:44:44;7.90;99.90
17774;DHT22;9011;33.236;-97.118;2023-04-24T11:47:14;8.00;99.90
17774;DHT22;9011;33.236;-97.118;2023-04-24T11:49:42;8.00;99.90
17774;DHT22;9011;33.236;-97.118;2023-04-24T11:52:10;8.00;99.90
17774;DHT22;9011;33.236;-97.118;2023-04-24T11:54:47;8.00;99.90
17774;DHT22;9011;33.236;-97.118;2023-04-24T11:57:19;8.00;99.90
17774;DHT22;9011;33.236;-97.118;2023-04-24T11:59:48;8.00;99.90
17774;DHT22;9011;33.236;-97.118;2023-04-24T12:02:23;8.00;99.90
17774;DHT22;9011;33.236;-97.118;2023-04-24T12:04:52;8.00;99.90
17774;DHT22;9011;33.236;-97.118;2023-04-24T12:07:22;8.00;99.90
17774;DHT22;9011;33.236;-97.118;2023-04-24T12:09:56;8.10;99.90
17774;DHT22;9011;33.236;-97.118;2023-04-24T12:12:27;8.20;99.90
17774;DHT22;9011;33.236;-97.118;2023-04-24T12:14:57;8.20;99.90
17774;DHT22;9011;33.236;-97.118;2023-04-24T12:17:26;8.30;99.90
17774;DHT22;9011;33.236;-97.118;2023-04-24T12:19:58;8.30;99.90
17774;DHT22;9011;33.236;-97.118;2023-04-24T12:22:27;8.40;99.90
17774;DHT22;9011;33.236;-97.118;2023-04-24T12:24:57;8.40;99.90
17774;DHT22;9011;33.236;-97.118;2023-04-24T12:27:31;8.40;99.90
17774;DHT22;9011;33.236;-97.118;2023-04-24T12:30:01;8.50;99.90
17774;DHT22;9011;33.236;-97.118;2023-04-24T12:32:29;8.60;99.90
17774;DHT22;9011;33.236;-97.118;2023-04-24T12:34:58;8.60;99.90
17774;DHT22;9011;33.236;-97.118;2023-04-24T12:37:31;8.70;99.90
17774;DHT22;9011;33.236;-97.118;2023-04-24T12:40:02;8.80;99.90
17774;DHT22;9011;33.236;-97.118;2023-04-24T12:42:34;8.70;99.90
17774;DHT22;9011;33.236;-97.118;2023-04-24T12:45:03;8.80;99.90
17774;DHT22;9011;33.236;-97.118;2023-04-24T12:47:32;8.90;99.90
17774;DHT22;9011;33.236;-97.118;2023-04-24T12:50:01;8.90;99.90
17774;DHT22;9011;33.236;-97.118;2023-04-24T12:52:30;9.00;99.90
17774;DHT22;9011;33.236;-97.118;2023-04-24T12:55:00;9.00;99.90
17774;DHT22;9011;33.236;-97.118;2023-04-24T12:57:30;9.10;99.90
17774;DHT22;9011;33.236;-97.118;2023-04-24T13:00:00;9.20;99.90
17774;DHT22;9011;33.236;-97.118;2023-04-24T13:02:30;9.30;99.90
17774;DHT22;9011;33.236;-97.118;2023-04-24T13:04:58;9.40;99.90
17774;DHT22;9011;33.236;-97.118;2023-04-24T13:07:27;9.40;99.90
17774;DHT22;9011;33.236;-97.118;2023-04-24T13:09:55;9.50;99.90
17774;DHT22;9011;33.236;-97.118;2023-04-24T13:12:24;9.60;99.90
17774;DHT22;9011;33.236;-97.118;2023-04-24T13:14:53;9.70;99.90
17774;DHT22;9011;33.236;-97.118;2023-04-24T13:17:23;9.70;99.90
17774;DHT22;9011;33.236;-97.118;2023-04-24T13:19:53;9.80;99.90
17774;DHT22;9011;33.236;-97.118;2023-04-24T13:22:22;10.00;99.90
17774;DHT22;9011;33.236;-97.118;2023-04-24T13:24:50;10.00;99.90
17774;DHT22;9011;33.236;-97.118;2023-04-24T13:27:18;10.10;99.90
17774;DHT22;9011;33.236;-97.118;2023-04-24T13:29:47;10.20;99.90
17774;DHT22;9011;33.236;-97.118;2023-04-24T13:32:15;10.20;99.90
17774;DHT22;9011;33.236;-97.118;2023-04-24T13:34:45;10.40;99.90
17774;DHT22;9011;33.236;-97.118;2023-04-24T13:37:14;10.40;99.90
17774;DHT22;9011;33.236;-97.118;2023-04-24T13:39:42;10.50;99.90
17774;DHT22;9011;33.236;-97.118;2023-04-24T13:42:10;10.50;99.90
17774;DHT22;9011;33.236;-97.118;2023-04-24T13:44:39;10.60;99.90
17774;DHT22;9011;33.236;-97.118;2023-04-24T13:47:08;10.80;99.90
17774;DHT22;9011;33.236;-97.118;2023-04-24T13:49:36;10.80;99.90
17774;DHT22;9011;33.236;-97.118;2023-04-24T13:52:06;10.90;99.90
17774;DHT22;9011;33.236;-97.118;2023-04-24T13:54:34;11.00;99.90
17774;DHT22;9011;33.236;-97.118;2023-04-24T13:57:04;11.00;99.90
17774;DHT22;9011;33.236;-97.118;2023-04-24T13:59:32;11.10;99.90
17774;DHT22;9011;33.236;-97.118;2023-04-24T14:02:00;11.20;99.90
17774;DHT22;9011;33.236;-97.118;2023-04-24T14:04:29;11.30;99.90
17774;DHT22;9011;33.236;-97.118;2023-04-24T14:06:57;11.40;99.90
17774;DHT22;9011;33.236;-97.118;2023-04-24T14:09:27;11.50;99.90
17774;DHT22;9011;33.236;-97.118;2023-04-24T14:11:55;11.70;99.90
17774;DHT22;9011;33.236;-97.118;2023-04-24T14:14:23;11.90;99.90
17774;DHT22;9011;33.236;-97.118;2023-04-24T14:16:52;12.00;99.90
17774;DHT22;9011;33.236;-97.118;2023-04-24T14:19:20;12.20;99.90
17774;DHT22;9011;33.236;-97.118;2023-04-24T14:21:49;12.40;99.90
17774;DHT22;9011;33.236;-97.118;2023-04-24T14:24:17;12.50;99.90
17774;DHT22;9011;33.236;-97.118;2023-04-24T14:26:47;12.80;99.90
17774;DHT22;9011;33.236;-97.118;2023-04-24T14:29:15;12.90;99.90
17774;DHT22;9011;33.236;-97.118;2023-04-24T14:31:44;12.90;99.90
17774;DHT22;9011;33.236;-97.118;2023-04-24T14:34:14;13.00;99.90
17774;DHT22;9011;33.236;-97.118;2023-04-24T14:36:42;13.00;99.90
17774;DHT22;9011;33.236;-97.118;2023-04-24T14:39:10;13.00;99.90
17774;DHT22;9011;33.236;-97.118;2023-04-24T14:41:39;12.90;99.90
17774;DHT22;9011;33.236;-97.118;2023-04-24T14:44:09;12.80;99.90
17774;DHT22;9011;33.236;-97.118;2023-04-24T14:46:37;12.90;99.90
17774;DHT22;9011;33.236;-97.118;2023-04-24T14:49:05;13.00;99.90
17774;DHT22;9011;33.236;-97.118;2023-04-24T14:51:35;13.00;99.90
17774;DHT22;9011;33.236;-97.118;2023-04-24T14:54:04;13.20;99.90
17774;DHT22;9011;33.236;-97.118;2023-04-24T14:56:32;13.40;99.90
17774;DHT22;9011;33.236;-97.118;2023-04-24T14:59:01;13.50;99.90
17774;DHT22;9011;33.236;-97.118;2023-04-24T15:01:31;13.60;99.90
17774;DHT22;9011;33.236;-97.118;2023-04-24T15:04:00;13.80;99.90
17774;DHT22;9011;33.236;-97.118;2023-04-24T15:06:29;13.60;99.90
17774;DHT22;9011;33.236;-97.118;2023-04-24T15:08:57;13.60;99.90
17774;DHT22;9011;33.236;-97.118;2023-04-24T15:11:26;13.70;99.90
17774;DHT22;9011;33.236;-97.118;2023-04-24T15:13:55;14.00;99.90
17774;DHT22;9011;33.236;-97.118;2023-04-24T15:16:24;14.00;99.90
17774;DHT22;9011;33.236;-97.118;2023-04-24T15:18:54;14.20;99.90
17774;DHT22;9011;33.236;-97.118;2023-04-24T15:21:23;14.30;99.90
17774;DHT22;9011;33.236;-97.118;2023-04-24T15:23:52;14.50;99.90
17774;DHT22;9011;33.236;-97.118;2023-04-24T15:26:20;14.60;99.90
17774;DHT22;9011;33.236;-97.118;2023-04-24T15:28:49;14.60;99.90
17774;DHT22;9011;33.236;-97.118;2023-04-24T15:31:18;14.50;99.90
17774;DHT22;9011;33.236;-97.118;2023-04-24T15:33:46;14.50;99.90
17774;DHT22;9011;33.236;-97.118;2023-04-24T15:36:17;14.70;99.90
17774;DHT22;9011;33.236;-97.118;2023-04-24T15:38:47;14.80;99.90
17774;DHT22;9011;33.236;-97.118;2023-04-24T15:41:16;15.10;99.90